CheckWX is a tool to help pilots better visualize weather data.  It is not intended as a substitute for an official pre-flight weather briefing.

21:39:46 UTC

KGSP METAR
Greenville Spartanburg International Airport
Greer, South Carolina, USA
Current

47 mins ago

KGSP 232053Z 20011KT 10SM CLR 31/20 A3019 RMK AO2 LTG DSNT N AND NE SLP209 T03110200 56024
Observed
May-23 @ 20:53 UTC
Wind
  • 200° at 11 KTS
Visibility
10 SM
Flight Rules
VFR
Cloud Levels
  • Clear skies
Temperature
31°C / 88°F
Dewpoint
20°C / 68°F
Heat Index
33°C / 92°F
Humidity
52%
Altimeter
30.19" Hg
Pressure
1022.32 hPa
Previous

2 hours ago

KGSP 231953Z 19012KT 10SM CLR 30/19 A3020 RMK AO2 LTG DSNT N AND NE SLP215 T03000194
Observed
May-23 @ 19:53 UTC
Wind
  • 190° at 12 KTS
Visibility
10 SM
Flight Rules
VFR
Cloud Levels
  • Clear skies
Temperature
30°C / 86°F
Dewpoint
19°C / 66°F
Heat Index
31°C / 88°F
Humidity
52%
Altimeter
30.2" Hg
Pressure
1022.72 hPa
Previous

3 hours ago

KGSP 231853Z 22008KT 10SM CLR 29/19 A3023 RMK AO2 LTG DSNT N SLP224 T02940194
Observed
May-23 @ 18:53 UTC
Wind
  • 220° at 8 KTS
Visibility
10 SM
Flight Rules
VFR
Cloud Levels
  • Clear skies
Temperature
29°C / 84°F
Dewpoint
19°C / 66°F
Heat Index
30°C / 86°F
Humidity
55%
Altimeter
30.23" Hg
Pressure
1023.72 hPa